METAR Data
IDs: Format: Raw Decoded Include TAF

Data at: 0229 UTC 29 Nov 2020

METAR for:KSPW (Spencer Muni, IA, US)
Text:KSPW 290153Z AUTO 22003KT 10SM CLR 02/M02 A2994 RMK AO2 SLP154 T00171017 $
Temperature: 1.7°C ( 35°F)
Dewpoint: -1.7°C ( 29°F) [RH = 78%]
Pressure (altimeter):29.94 inches Hg (1014.0 mb) [Sea level pressure: 1015.4 mb]
Winds:from the SW (220 degrees) at 3 MPH (3 knots; 1.5 m/s)
Visibility:10 or more sm (16+ km)
Ceiling:at least 12,000 feet AGL
Clouds:sky clear below 12,000 feet AGL
QC Flag:automated observation with no human augmentation; SOME DATA ABOVE MAY BE INACCURATE!!!"$" is an indication the sensor requires maintenance.